Time;durP1;ratioP1;P1;durP2;ratioP2;P2;SDS_P1;SDS_P2;PMS_P1;PMS_P2;Temp;Humidity;BMP_temperature;BMP_pressure;BME280_temperature;BME280_humidity;BME280_pressure;Samples;Min_cycle;Max_cycle;Signal;HPM_P1;HPM_P2
2020/12/07 00:00:45;;;;;;;31.33;17.05;;;8.70;78.80;;;;;;4977603;28;20377;-74
2020/12/07 00:03:12;;;;;;;16.10;10.38;;;8.70;78.90;;;;;;4977766;28;20438;-74
2020/12/07 00:05:38;;;;;;;31.55;18.63;;;8.70;79.40;;;;;;4974354;28;20513;-74
2020/12/07 00:08:04;;;;;;;22.98;12.52;;;8.70;78.90;;;;;;4974453;28;20058;-72
2020/12/07 00:10:30;;;;;;;22.33;13.63;;;8.60;78.70;;;;;;4975889;28;20062;-74
2020/12/07 00:12:56;;;;;;;18.65;11.15;;;8.70;78.80;;;;;;4975766;28;20057;-74
2020/12/07 00:15:22;;;;;;;22.95;14.90;;;8.70;79.00;;;;;;4975454;28;20031;-74
2020/12/07 00:17:48;;;;;;;17.40;11.07;;;8.60;78.70;;;;;;4974370;28;20027;-75
2020/12/07 00:20:14;;;;;;;18.25;12.65;;;8.60;78.60;;;;;;4974361;28;20177;-74
2020/12/07 00:22:40;;;;;;;17.98;11.20;;;8.50;78.60;;;;;;4975239;28;20027;-75
2020/12/07 00:25:06;;;;;;;20.98;12.57;;;8.60;78.90;;;;;;4975555;28;20030;-75
2020/12/07 00:27:35;;;;;;;15.13;11.13;;;8.60;78.90;;;;;;4975542;28;20023;-75
2020/12/07 00:30:04;;;;;;;12.10;8.43;;;8.50;78.80;;;;;;4974895;28;20031;-76
2020/12/07 00:32:32;;;;;;;27.70;15.57;;;8.50;78.80;;;;;;4975446;28;20027;-75
2020/12/07 00:34:58;;;;;;;43.00;24.85;;;8.50;79.00;;;;;;4973530;28;20078;-75
2020/12/07 00:37:24;;;;;;;23.63;12.15;;;8.50;79.00;;;;;;4973912;28;20054;-76
2020/12/07 00:39:50;;;;;;;23.80;14.40;;;8.60;78.70;;;;;;4974024;28;20462;-74
2020/12/07 00:42:16;;;;;;;19.50;11.93;;;8.60;78.70;;;;;;4975252;28;20038;-73
2020/12/07 00:44:42;;;;;;;28.65;16.77;;;8.50;78.50;;;;;;4974619;28;20035;-75
2020/12/07 00:47:10;;;;;;;13.60;8.82;;;8.60;78.70;;;;;;4975198;28;20106;-74
2020/12/07 00:49:37;;;;;;;26.67;16.10;;;8.50;78.80;;;;;;4973666;28;20517;-74
2020/12/07 00:52:03;;;;;;;21.48;12.90;;;8.50;78.50;;;;;;4973646;28;20027;-75
2020/12/07 00:54:29;;;;;;;24.55;14.02;;;8.50;78.50;;;;;;4974864;28;20100;-73
2020/12/07 00:56:56;;;;;;;15.27;9.68;;;8.50;78.30;;;;;;4973515;28;20054;-76
2020/12/07 00:59:22;;;;;;;23.48;13.43;;;8.50;78.30;;;;;;4973815;28;20027;-75
2020/12/07 01:01:49;;;;;;;14.48;9.13;;;8.50;78.30;;;;;;4973896;28;20382;-74
2020/12/07 01:04:15;;;;;;;11.30;7.03;;;8.50;78.50;;;;;;4973425;28;20035;-76
2020/12/07 01:06:45;;;;;;;7.70;5.18;;;8.50;78.40;;;;;;4973526;28;20061;-76
2020/12/07 01:09:21;;;;;;;17.80;11.00;;;8.50;78.60;;;;;;4973721;28;20038;-73
2020/12/07 01:11:54;;;;;;;52.38;28.15;;;8.50;78.50;;;;;;4973530;28;20041;-75
2020/12/07 01:14:21;;;;;;;18.73;10.75;;;8.50;78.50;;;;;;4973716;28;20035;-75
2020/12/07 01:16:47;;;;;;;22.83;12.63;;;8.50;78.60;;;;;;4974855;28;20406;-73
2020/12/07 01:19:13;;;;;;;18.38;9.45;;;8.50;78.60;;;;;;4973319;28;20023;-74
2020/12/07 01:21:38;;;;;;;32.38;16.58;;;8.50;78.60;;;;;;4973537;28;20034;-74
2020/12/07 01:24:04;;;;;;;63.30;31.02;;;8.50;78.60;;;;;;4973468;28;20042;-73
2020/12/07 01:26:30;;;;;;;23.58;11.98;;;8.50;78.50;;;;;;4973277;28;20027;-73
2020/12/07 01:28:59;;;;;;;63.42;25.52;;;8.50;78.80;;;;;;4974858;28;20062;-74
2020/12/07 01:31:25;;;;;;;29.67;14.52;;;8.50;78.70;;;;;;4973326;28;20029;-74
2020/12/07 01:33:50;;;;;;;121.90;48.97;;;8.50;78.80;;;;;;4973552;28;20385;-76
2020/12/07 01:36:16;;;;;;;44.67;20.13;;;8.50;78.80;;;;;;4973498;28;20031;-73
2020/12/07 01:38:42;;;;;;;81.15;31.88;;;8.50;78.80;;;;;;4973186;28;20058;-75
2020/12/07 01:41:08;;;;;;;12.55;6.97;;;8.50;79.00;;;;;;4973416;28;20081;-76
2020/12/07 01:43:34;;;;;;;41.63;18.23;;;8.50;79.20;;;;;;4973373;28;20130;-75
2020/12/07 01:46:00;;;;;;;78.75;34.30;;;8.50;79.10;;;;;;4974417;28;20034;-75
2020/12/07 01:48:26;;;;;;;44.67;23.50;;;8.50;79.10;;;;;;4977242;28;20031;-74
2020/12/07 01:50:53;;;;;;;56.60;27.58;;;8.50;79.10;;;;;;4977176;28;20085;-75
2020/12/07 01:53:22;;;;;;;27.60;16.27;;;8.50;79.10;;;;;;4978126;28;20122;-74
2020/12/07 01:55:53;;;;;;;17.63;11.25;;;8.50;78.90;;;;;;4977092;28;20078;-74
2020/12/07 01:58:19;;;;;;;16.45;10.93;;;8.50;78.80;;;;;;4977188;28;20541;-75
2020/12/07 02:00:45;;;;;;;10.90;7.60;;;8.40;78.80;;;;;;4978291;28;20459;-75
2020/12/07 02:03:11;;;;;;;26.10;17.10;;;8.50;78.90;;;;;;4976869;28;20041;-76
2020/12/07 02:05:41;;;;;;;13.98;8.98;;;8.50;78.90;;;;;;4976477;28;20146;-74
2020/12/07 02:08:17;;;;;;;34.28;18.75;;;8.50;78.90;;;;;;4976585;28;20027;-76
2020/12/07 02:10:44;;;;;;;15.88;10.52;;;8.40;78.90;;;;;;4977763;28;20363;-74
2020/12/07 02:13:10;;;;;;;28.38;18.48;;;8.40;79.00;;;;;;4976464;28;20065;-73
2020/12/07 02:15:37;;;;;;;28.13;14.15;;;8.40;79.10;;;;;;4976167;28;20027;-74
2020/12/07 02:18:04;;;;;;;15.73;9.80;;;8.40;79.00;;;;;;4978036;28;20122;-75
2020/12/07 02:20:31;;;;;;;65.88;30.80;;;8.30;79.10;;;;;;4976383;28;20027;-76
2020/12/07 02:22:57;;;;;;;80.40;32.78;;;8.40;79.20;;;;;;4976536;28;20122;-74
2020/12/07 02:25:23;;;;;;;88.72;38.38;;;8.40;79.20;;;;;;4976564;28;20117;-72
2020/12/07 02:27:50;;;;;;;24.83;12.45;;;8.30;79.30;;;;;;4976675;28;20023;-73
2020/12/07 02:30:17;;;;;;;60.90;26.95;;;8.30;79.20;;;;;;4976502;28;20081;-72
2020/12/07 02:32:44;;;;;;;41.33;17.33;;;8.40;79.20;;;;;;4977662;28;20031;-73
2020/12/07 02:35:10;;;;;;;33.88;15.93;;;8.30;79.40;;;;;;4977336;28;20047;-75
2020/12/07 02:37:37;;;;;;;34.38;14.85;;;8.30;79.40;;;;;;4977829;28;20483;-72
2020/12/07 02:40:05;;;;;;;20.90;10.35;;;8.30;79.40;;;;;;4976226;28;20080;-74
2020/12/07 02:42:34;;;;;;;49.53;21.10;;;8.30;79.40;;;;;;4977210;28;20030;-75
2020/12/07 02:45:14;;;;;;;59.80;25.83;;;8.30;79.60;;;;;;4976212;28;20175;-72
2020/12/07 02:47:41;;;;;;;50.78;20.88;;;8.30;79.60;;;;;;4976146;28;20122;-75
2020/12/07 02:50:08;;;;;;;72.93;29.83;;;8.30;79.50;;;;;;4975987;28;20027;-73
2020/12/07 02:52:34;;;;;;;28.40;13.88;;;8.30;79.60;;;;;;4976072;28;20109;-75
2020/12/07 02:55:02;;;;;;;45.35;18.98;;;8.30;79.50;;;;;;4976289;28;20446;-72
2020/12/07 02:57:28;;;;;;;35.78;16.58;;;8.30;79.50;;;;;;4975633;28;20033;-74
2020/12/07 02:59:55;;;;;;;24.70;10.50;;;8.30;79.50;;;;;;4975314;28;20027;-74
2020/12/07 03:02:21;;;;;;;36.53;16.25;;;8.40;80.50;;;;;;4976853;28;20037;-74
2020/12/07 03:04:47;;;;;;;49.08;21.23;;;8.40;79.40;;;;;;4975637;28;20078;-72
2020/12/07 03:07:13;;;;;;;39.03;18.58;;;8.40;79.50;;;;;;4975773;28;20459;-73
2020/12/07 03:09:39;;;;;;;87.13;34.72;;;8.40;79.60;;;;;;4975442;28;20053;-73
2020/12/07 03:12:07;;;;;;;66.20;27.73;;;8.30;79.40;;;;;;4977218;28;20031;-72
2020/12/07 03:14:33;;;;;;;42.88;19.40;;;8.30;79.50;;;;;;4976044;28;20034;-73
2020/12/07 03:16:59;;;;;;;50.60;24.27;;;8.40;79.20;;;;;;4975371;28;20027;-74
2020/12/07 03:19:25;;;;;;;39.50;21.40;;;8.40;79.20;;;;;;4975569;28;20034;-74
2020/12/07 03:21:50;;;;;;;28.50;15.63;;;8.40;79.30;;;;;;4975585;28;20043;-72
2020/12/07 03:24:16;;;;;;;21.52;12.48;;;8.40;79.40;;;;;;4975550;28;20575;-73
2020/12/07 03:26:42;;;;;;;20.75;12.40;;;8.40;79.30;;;;;;4976736;28;20031;-74
2020/12/07 03:29:08;;;;;;;21.55;13.93;;;8.40;79.20;;;;;;4975416;28;20034;-73
2020/12/07 03:31:36;;;;;;;20.30;12.88;;;8.40;79.30;;;;;;4976386;28;20391;-76
2020/12/07 03:34:04;;;;;;;19.70;12.70;;;8.40;79.10;;;;;;4975318;28;20026;-74
2020/12/07 03:36:30;;;;;;;16.55;10.77;;;8.40;79.30;;;;;;4975651;28;20382;-75
2020/12/07 03:38:56;;;;;;;16.35;11.35;;;8.40;79.10;;;;;;4974942;28;20041;-76
2020/12/07 03:41:22;;;;;;;33.75;16.98;;;8.40;79.10;;;;;;4975092;28;20126;-75
2020/12/07 03:43:48;;;;;;;18.80;11.57;;;8.40;79.00;;;;;;4974999;28;20117;-73
2020/12/07 03:46:15;;;;;;;23.98;12.18;;;8.40;79.20;;;;;;4974858;28;20459;-74
2020/12/07 03:48:41;;;;;;;21.67;12.45;;;8.30;79.00;;;;;;4975054;28;20118;-75
2020/12/07 03:51:07;;;;;;;25.48;13.13;;;8.30;79.00;;;;;;4974938;28;20026;-74
2020/12/07 03:53:35;;;;;;;32.20;16.50;;;8.30;78.90;;;;;;4974635;28;20081;-74
2020/12/07 03:56:01;;;;;;;25.35;14.23;;;8.30;79.50;;;;;;4974915;28;20042;-74
2020/12/07 03:58:27;;;;;;;30.33;16.70;;;8.30;79.00;;;;;;4975574;28;20085;-74
2020/12/07 04:00:54;;;;;;;112.60;64.93;;;8.30;78.90;;;;;;4974779;28;20046;-73
2020/12/07 04:03:20;;;;;;;35.83;20.60;;;8.30;78.90;;;;;;4976296;28;20035;-76
2020/12/07 04:05:52;;;;;;;21.98;11.23;;;8.40;79.00;;;;;;4974008;28;20130;-75
2020/12/07 04:08:18;;;;;;;21.55;12.85;;;8.30;79.10;;;;;;4974737;28;20126;-74
2020/12/07 04:10:43;;;;;;;15.35;10.40;;;8.40;78.90;;;;;;4974928;28;20106;-75
2020/12/07 04:13:09;;;;;;;8.85;5.38;;;8.40;78.80;;;;;;4975318;28;20055;-74
2020/12/07 04:15:35;;;;;;;9.68;4.95;;;8.40;78.80;;;;;;4974580;28;20110;-74
2020/12/07 04:18:01;;;;;;;8.23;5.03;;;8.40;78.70;;;;;;4974512;28;20027;-75
2020/12/07 04:20:27;;;;;;;7.97;4.82;;;8.40;78.50;;;;;;4975580;28;20033;-75
2020/12/07 04:22:52;;;;;;;9.38;5.82;;;8.40;78.50;;;;;;4975871;28;20482;-73
2020/12/07 04:25:18;;;;;;;9.25;5.50;;;8.40;78.40;;;;;;4975727;28;20053;-76
2020/12/07 04:27:44;;;;;;;7.18;4.65;;;8.40;78.60;;;;;;4974022;28;20534;-75
2020/12/07 04:30:10;;;;;;;8.20;4.10;;;8.40;79.00;;;;;;4974558;28;20086;-74
2020/12/07 04:32:36;;;;;;;9.00;4.78;;;8.40;78.30;;;;;;4975513;28;20430;-75
2020/12/07 04:35:03;;;;;;;7.05;4.60;;;8.40;78.50;;;;;;4973875;28;20060;-75
2020/12/07 04:37:28;;;;;;;6.90;4.10;;;8.50;78.40;;;;;;4974165;28;20054;-77
2020/12/07 04:39:54;;;;;;;8.63;5.00;;;8.40;78.20;;;;;;4975110;28;20023;-75
2020/12/07 04:42:20;;;;;;;8.10;4.95;;;8.40;78.40;;;;;;4973921;28;20110;-75
2020/12/07 04:44:46;;;;;;;8.57;5.32;;;8.40;78.30;;;;;;4975040;28;20037;-75
2020/12/07 04:47:16;;;;;;;6.80;4.50;;;8.40;78.60;;;;;;4974383;28;20027;-76
2020/12/07 04:49:45;;;;;;;7.82;4.82;;;8.40;78.50;;;;;;4974778;28;20486;-75
2020/12/07 04:52:12;;;;;;;11.20;5.07;;;8.40;78.50;;;;;;4973975;28;20061;-75
2020/12/07 04:54:41;;;;;;;7.90;5.03;;;8.40;78.50;;;;;;4973688;28;20030;-74
2020/12/07 04:57:07;;;;;;;9.40;4.80;;;8.40;78.60;;;;;;4975580;28;20054;-75
2020/12/07 04:59:34;;;;;;;8.38;4.72;;;8.40;78.60;;;;;;4974899;28;20031;-76
2020/12/07 05:02:01;;;;;;;6.30;4.38;;;8.50;78.40;;;;;;4974851;28;20053;-77
2020/12/07 05:04:27;;;;;;;44.67;20.60;;;8.40;78.20;;;;;;4973755;28;20041;-76
2020/12/07 05:07:06;;;;;;;31.23;14.45;;;8.50;78.20;;;;;;4973642;28;20479;-75
2020/12/07 05:09:33;;;;;;;24.83;12.38;;;8.50;78.30;;;;;;4973721;28;20027;-76
2020/12/07 05:12:02;;;;;;;34.33;17.38;;;8.50;78.30;;;;;;4973781;28;20117;-75
2020/12/07 05:14:29;;;;;;;26.55;13.25;;;8.50;78.30;;;;;;4974614;28;20378;-75
2020/12/07 05:16:55;;;;;;;31.45;16.58;;;8.50;78.60;;;;;;4973651;28;20477;-76
2020/12/07 05:19:22;;;;;;;36.20;20.60;;;8.50;78.50;;;;;;4974972;28;20026;-76
2020/12/07 05:21:49;;;;;;;16.02;8.38;;;8.50;78.40;;;;;;4976351;28;20066;-77
2020/12/07 05:24:16;;;;;;;40.33;19.92;;;8.50;78.70;;;;;;4977386;28;20041;-75
2020/12/07 05:26:43;;;;;;;74.72;35.25;;;8.50;78.50;;;;;;4977642;28;20027;-75
2020/12/07 05:29:14;;;;;;;31.60;16.58;;;8.50;78.60;;;;;;4977605;28;20034;-75
2020/12/07 05:31:41;;;;;;;43.28;20.55;;;8.50;78.50;;;;;;4977382;28;20410;-76
2020/12/07 05:34:06;;;;;;;27.65;14.90;;;8.50;78.60;;;;;;4977549;28;20039;-74
2020/12/07 05:36:32;;;;;;;20.58;11.25;;;8.50;78.50;;;;;;4977309;28;20450;-75
2020/12/07 05:38:59;;;;;;;33.85;18.17;;;8.50;78.50;;;;;;4977383;28;20455;-76
2020/12/07 05:41:28;;;;;;;17.88;9.95;;;8.50;78.40;;;;;;4977402;28;20027;-76
2020/12/07 05:43:54;;;;;;;17.08;10.20;;;8.50;78.60;;;;;;4976942;28;20512;-75
2020/12/07 05:46:29;;;;;;;48.85;21.00;;;8.50;78.50;;;;;;4977251;28;20120;-76
2020/12/07 05:48:57;;;;;;;27.20;14.90;;;8.50;78.30;;;;;;4977297;28;20525;-74
2020/12/07 05:51:26;;;;;;;30.02;16.02;;;8.50;78.20;;;;;;4976911;28;20027;-75
2020/12/07 05:53:53;;;;;;;40.65;21.23;;;8.60;78.40;;;;;;4977145;28;20387;-74
2020/12/07 05:56:19;;;;;;;42.10;24.67;;;8.50;78.40;;;;;;4977105;28;20118;-76
2020/12/07 05:59:06;;;;;;;58.05;32.00;;;8.60;78.50;;;;;;4976843;28;20046;-76
2020/12/07 06:01:36;;;;;;;13.20;8.32;;;8.60;78.40;;;;;;4978050;28;20031;-76
2020/12/07 06:04:03;;;;;;;14.88;9.13;;;8.50;78.60;;;;;;4977005;28;20038;-76
2020/12/07 06:06:33;;;;;;;18.48;11.13;;;8.60;78.50;;;;;;4989727;28;20049;-76
2020/12/07 06:09:05;;;;;;;16.88;11.43;;;8.60;78.30;;;;;;4997595;28;20026;-74
2020/12/07 06:11:39;;;;;;;24.80;17.23;;;8.60;78.00;;;;;;4979781;28;20041;-74
2020/12/07 06:14:06;;;;;;;14.95;10.07;;;8.60;78.20;;;;;;4979766;28;20037;-75
2020/12/07 06:16:41;;;;;;;26.63;18.50;;;8.60;78.30;;;;;;4979908;28;20034;-76
2020/12/07 06:19:15;;;;;;;15.85;11.02;;;8.60;78.30;;;;;;4997231;28;20030;-74
2020/12/07 06:21:59;;;;;;;13.65;9.18;;;8.60;78.20;;;;;;4997441;28;20027;-75
2020/12/07 06:24:40;;;;;;;14.48;9.57;;;8.60;78.20;;;;;;4979885;28;20505;-76
2020/12/07 06:27:13;;;;;;;12.98;8.55;;;8.70;78.30;;;;;;4979466;28;20034;-75
2020/12/07 06:29:58;;;;;;;14.73;8.90;;;8.70;78.20;;;;;;4997196;28;20026;-75
2020/12/07 06:32:43;;;;;;;21.00;15.90;;;8.70;78.20;;;;;;4996646;28;20034;-74
2020/12/07 06:35:09;;;;;;;16.88;11.48;;;8.80;78.20;;;;;;4996583;28;20076;-75
2020/12/07 06:37:40;;;;;;;19.05;13.13;;;8.80;78.20;;;;;;4980128;28;20034;-73
2020/12/07 06:40:06;;;;;;;19.38;12.07;;;8.70;78.30;;;;;;4979314;28;20114;-74
2020/12/07 06:42:39;;;;;;;22.65;14.32;;;8.80;78.10;;;;;;4979542;28;20066;-76
2020/12/07 06:45:08;;;;;;;17.67;11.38;;;8.80;78.40;;;;;;4979342;28;20501;-75
2020/12/07 06:47:34;;;;;;;18.92;10.80;;;8.80;78.00;;;;;;4979381;28;20033;-73
2020/12/07 06:50:15;;;;;;;15.93;10.93;;;8.90;78.00;;;;;;4979336;28;20386;-76
2020/12/07 06:52:43;;;;;;;23.17;13.90;;;8.90;78.20;;;;;;4979323;28;20158;-74
2020/12/07 06:55:15;;;;;;;32.67;20.27;;;8.90;78.00;;;;;;4978956;28;20120;-74
2020/12/07 06:57:49;;;;;;;28.70;18.90;;;8.90;78.20;;;;;;4979255;28;20030;-75
2020/12/07 07:00:19;;;;;;;24.58;15.70;;;8.90;78.10;;;;;;4978851;28;20034;-76
2020/12/07 07:02:47;;;;;;;27.10;17.42;;;8.90;77.90;;;;;;4996421;28;20030;-75
2020/12/07 07:05:14;;;;;;;20.83;10.98;;;9.00;77.90;;;;;;4978803;28;20042;-76
2020/12/07 07:07:41;;;;;;;20.23;12.23;;;8.90;77.70;;;;;;4978745;28;20089;-75
2020/12/07 07:10:09;;;;;;;20.98;14.18;;;9.00;77.70;;;;;;4995362;28;20609;-74
2020/12/07 07:12:36;;;;;;;19.25;12.50;;;9.00;78.00;;;;;;4977209;28;20481;-74
2020/12/07 07:15:04;;;;;;;24.58;14.38;;;9.00;77.60;;;;;;4994355;28;20494;-74
2020/12/07 07:17:31;;;;;;;27.67;19.25;;;9.00;77.70;;;;;;4977041;28;20053;-74
2020/12/07 07:19:59;;;;;;;39.78;23.17;;;9.00;77.80;;;;;;4977579;28;20430;-74
2020/12/07 07:22:25;;;;;;;17.83;11.30;;;9.00;77.80;;;;;;4995015;28;20023;-76
2020/12/07 07:25:08;;;;;;;19.15;11.68;;;9.00;77.80;;;;;;4978442;28;20045;-76
2020/12/07 07:30:19;;;;;;;124.88;18.30;;;8.90;77.50;;;;;;4995623;28;20138;-75
2020/12/07 07:32:50;;;;;;;19.92;12.15;;;8.90;77.40;;;;;;4978569;28;20066;-75
2020/12/07 07:35:18;;;;;;;37.85;19.50;;;8.90;76.90;;;;;;4996045;28;20030;-75
2020/12/07 07:37:44;;;;;;;22.23;14.40;;;8.90;77.20;;;;;;4978230;28;20033;-77
2020/12/07 07:40:16;;;;;;;20.60;11.70;;;8.90;77.70;;;;;;4995942;28;20034;-76
2020/12/07 07:42:53;;;;;;;18.40;10.35;;;8.90;77.00;;;;;;4978138;28;20034;-76
2020/12/07 07:45:21;;;;;;;23.38;12.65;;;8.90;77.00;;;;;;4995187;28;20047;-76
2020/12/07 07:48:01;;;;;;;21.52;14.52;;;8.90;76.90;;;;;;4978944;28;20030;-75
2020/12/07 08:17:20;;;;;;;17.10;10.68;;;8.80;76.10;;;;;;4946333;29;20137;-74
2020/12/07 08:19:49;;;;;;;23.67;15.02;;;8.80;76.50;;;;;;4955626;29;20027;-74
2020/12/07 08:22:20;;;;;;;22.75;13.00;;;8.80;76.30;;;;;;4954849;29;20122;-76
2020/12/07 08:25:00;;;;;;;21.27;12.00;;;8.80;76.40;;;;;;4956258;28;20035;-76
2020/12/07 08:27:33;;;;;;;20.05;12.02;;;8.80;76.50;;;;;;4955082;29;20031;-75
2020/12/07 08:30:06;;;;;;;16.55;9.38;;;8.80;75.90;;;;;;4954999;28;20027;-77
2020/12/07 08:32:32;;;;;;;21.05;12.82;;;8.90;76.10;;;;;;4956011;28;20078;-75
2020/12/07 08:34:59;;;;;;;19.45;12.35;;;8.80;76.20;;;;;;4954945;29;20035;-76
2020/12/07 08:37:25;;;;;;;20.40;10.85;;;8.80;75.90;;;;;;4954970;28;20023;-76
2020/12/07 08:39:52;;;;;;;20.63;11.85;;;8.80;76.00;;;;;;4954816;28;20027;-75
2020/12/07 08:42:20;;;;;;;16.90;8.23;;;8.80;76.20;;;;;;4954826;29;20035;-75
2020/12/07 08:44:46;;;;;;;15.60;10.00;;;8.80;75.70;;;;;;4954788;28;20513;-77
2020/12/07 08:47:12;;;;;;;18.98;10.98;;;8.80;76.10;;;;;;4955765;29;20027;-77
2020/12/07 08:49:38;;;;;;;21.10;10.55;;;8.80;75.60;;;;;;4956018;28;20111;-76
2020/12/07 08:52:04;;;;;;;15.50;9.35;;;8.90;75.40;;;;;;4945515;29;20382;-76
2020/12/07 08:54:30;;;;;;;17.90;10.20;;;8.80;75.50;;;;;;4945551;29;20090;-77
2020/12/07 08:56:55;;;;;;;21.80;12.20;;;8.80;75.70;;;;;;4943581;28;20023;-76
2020/12/07 08:59:21;;;;;;;18.88;8.23;;;8.80;75.90;;;;;;4937098;28;20031;-75
2020/12/07 09:01:47;;;;;;;24.75;14.50;;;8.80;75.60;;;;;;4944417;29;20521;-77
2020/12/07 09:04:13;;;;;;;16.80;8.07;;;8.80;75.60;;;;;;4953540;29;20039;-74
2020/12/07 09:06:44;;;;;;;15.70;8.30;;;8.80;75.50;;;;;;4953846;29;20053;-77
2020/12/07 09:09:10;;;;;;;14.93;7.90;;;8.80;75.60;;;;;;4954667;29;20118;-75
2020/12/07 09:11:36;;;;;;;19.25;9.82;;;8.80;75.60;;;;;;4955777;28;20123;-74
2020/12/07 09:14:06;;;;;;;44.35;28.20;;;8.80;75.50;;;;;;4955268;28;20035;-72
2020/12/07 09:16:33;;;;;;;19.08;10.30;;;8.80;75.80;;;;;;4954171;29;20081;-74
2020/12/07 09:18:59;;;;;;;16.15;9.50;;;8.80;75.80;;;;;;4954412;28;20414;-75
2020/12/07 09:21:25;;;;;;;14.48;7.97;;;8.80;76.40;;;;;;4947211;28;20054;-75
2020/12/07 09:23:50;;;;;;;16.67;7.82;;;8.70;75.70;;;;;;4946800;29;20035;-74
2020/12/07 09:26:16;;;;;;;13.23;7.38;;;8.70;76.30;;;;;;4954006;29;20023;-73
2020/12/07 09:28:42;;;;;;;15.50;9.38;;;8.70;75.60;;;;;;4952365;29;20030;-74
2020/12/07 09:31:08;;;;;;;12.98;7.30;;;8.70;75.60;;;;;;4953994;29;20036;-73
2020/12/07 09:33:34;;;;;;;14.80;8.75;;;8.70;75.60;;;;;;4955529;28;20027;-74
2020/12/07 09:36:01;;;;;;;18.42;10.52;;;8.70;75.60;;;;;;4953947;29;20079;-73
2020/12/07 09:38:27;;;;;;;19.05;10.30;;;8.70;75.90;;;;;;4954274;29;20023;-74
2020/12/07 09:40:53;;;;;;;11.88;6.40;;;8.70;75.60;;;;;;4950803;28;20106;-74
2020/12/07 09:43:19;;;;;;;17.70;9.75;;;8.80;75.10;;;;;;4952497;29;20083;-73
2020/12/07 09:45:45;;;;;;;13.90;8.43;;;8.70;75.40;;;;;;4954180;29;20114;-73
2020/12/07 09:48:11;;;;;;;17.48;9.80;;;8.70;75.40;;;;;;4955186;28;20035;-73
2020/12/07 09:50:36;;;;;;;33.53;12.68;;;8.80;75.30;;;;;;4953392;28;20372;-72
2020/12/07 09:53:07;;;;;;;25.98;15.38;;;8.80;75.20;;;;;;4955268;28;20031;-72
2020/12/07 09:55:33;;;;;;;22.00;11.63;;;8.80;74.70;;;;;;4953995;29;20098;-73
2020/12/07 09:57:59;;;;;;;16.60;9.13;;;8.90;74.30;;;;;;4953325;28;20460;-73
2020/12/07 10:00:25;;;;;;;28.48;13.85;;;8.90;74.50;;;;;;4953688;28;20078;-73
2020/12/07 10:02:51;;;;;;;31.20;17.35;;;9.00;76.60;;;;;;4953573;29;20082;-73
2020/12/07 10:05:16;;;;;;;18.75;10.73;;;9.00;76.50;;;;;;4955842;28;20082;-74
2020/12/07 10:07:42;;;;;;;34.47;18.77;;;9.00;75.80;;;;;;4958263;28;20054;-73
2020/12/07 10:10:08;;;;;;;42.75;19.55;;;9.00;77.10;;;;;;4960871;28;20027;-73
2020/12/07 10:12:34;;;;;;;22.23;13.20;;;8.90;76.90;;;;;;4978101;28;20082;-74
2020/12/07 10:15:06;;;;;;;45.85;21.30;;;8.90;76.80;;;;;;4960542;28;20485;-75
2020/12/07 10:17:32;;;;;;;27.08;14.10;;;8.90;77.20;;;;;;4960306;28;20022;-74
2020/12/07 10:19:58;;;;;;;83.15;42.95;;;8.90;77.00;;;;;;4960652;28;20041;-73
2020/12/07 10:22:24;;;;;;;41.20;18.92;;;8.90;77.30;;;;;;4960551;28;20026;-72
2020/12/07 10:24:50;;;;;;;45.55;20.25;;;8.90;78.40;;;;;;4977204;28;20486;-75
2020/12/07 10:27:15;;;;;;;30.52;18.80;;;8.90;78.40;;;;;;4960497;28;20069;-74
2020/12/07 10:29:41;;;;;;;16.45;11.30;;;9.00;79.20;;;;;;4960157;28;20549;-75
2020/12/07 10:32:07;;;;;;;14.07;9.02;;;8.90;78.40;;;;;;4960026;28;20034;-73
2020/12/07 10:34:33;;;;;;;18.10;11.65;;;8.90;77.80;;;;;;4960538;28;20030;-74
2020/12/07 10:36:59;;;;;;;22.33;14.32;;;8.80;78.80;;;;;;4960856;28;20062;-76
2020/12/07 10:39:25;;;;;;;16.60;11.43;;;8.80;78.70;;;;;;4959970;28;20524;-75
2020/12/07 10:41:51;;;;;;;28.38;19.35;;;8.70;79.90;;;;;;4960137;28;20121;-74
2020/12/07 10:44:17;;;;;;;24.02;14.38;;;8.70;79.40;;;;;;4960069;28;20039;-75
2020/12/07 10:46:42;;;;;;;12.20;7.80;;;8.80;79.20;;;;;;4959674;28;20161;-77
2020/12/07 10:49:08;;;;;;;20.67;9.98;;;8.70;78.00;;;;;;4977420;28;20113;-73
2020/12/07 10:51:34;;;;;;;19.75;9.85;;;8.70;78.70;;;;;;4977373;28;20407;-74
2020/12/07 10:54:02;;;;;;;16.05;8.23;;;8.70;78.70;;;;;;4959966;28;20038;-72
2020/12/07 10:56:28;;;;;;;12.57;7.63;;;8.70;78.60;;;;;;4959908;28;20037;-76
2020/12/07 10:58:54;;;;;;;12.88;7.20;;;8.70;78.40;;;;;;4959696;28;20058;-75
2020/12/07 11:01:20;;;;;;;10.57;6.35;;;8.70;78.10;;;;;;4959853;28;20062;-73
2020/12/07 11:03:46;;;;;;;10.70;6.63;;;8.70;77.20;;;;;;4959716;28;20542;-74
2020/12/07 11:06:16;;;;;;;28.50;15.57;;;8.70;77.40;;;;;;4959023;28;20494;-75
2020/12/07 11:08:56;;;;;;;13.05;8.65;;;8.80;77.20;;;;;;4959749;28;20031;-73
2020/12/07 11:11:22;;;;;;;14.95;9.70;;;8.80;77.00;;;;;;4959679;28;20042;-75
2020/12/07 11:13:48;;;;;;;16.35;9.43;;;8.80;76.60;;;;;;4959213;28;20031;-75
2020/12/07 11:16:15;;;;;;;12.82;7.80;;;8.80;77.10;;;;;;4959617;28;20071;-72
2020/12/07 11:18:41;;;;;;;14.05;8.25;;;8.80;77.60;;;;;;4959270;28;20086;-72
2020/12/07 11:21:08;;;;;;;14.63;9.90;;;8.80;78.40;;;;;;4976497;28;20027;-74
2020/12/07 11:23:34;;;;;;;15.95;9.40;;;8.70;78.00;;;;;;4976293;28;20031;-75
2020/12/07 11:26:00;;;;;;;14.18;9.27;;;8.70;78.10;;;;;;4958660;28;20026;-74
2020/12/07 11:28:25;;;;;;;14.60;9.77;;;8.80;79.60;;;;;;4975213;28;20467;-74
2020/12/07 11:30:51;;;;;;;26.83;14.98;;;8.80;78.00;;;;;;4959293;28;20035;-74
2020/12/07 11:33:17;;;;;;;24.10;13.52;;;8.80;78.60;;;;;;4959175;28;20502;-73
2020/12/07 11:35:43;;;;;;;32.03;17.38;;;8.90;78.00;;;;;;4959031;28;20471;-75
2020/12/07 11:38:15;;;;;;;20.60;14.13;;;8.80;77.80;;;;;;4958949;28;20114;-74
2020/12/07 11:45:44;;;;;;;12.25;7.93;;;8.90;78.50;;;;;;4976120;28;20023;-74
2020/12/07 11:48:11;;;;;;;14.50;9.95;;;8.80;78.10;;;;;;4958704;28;20033;-74
2020/12/07 11:50:37;;;;;;;15.02;8.77;;;8.80;78.30;;;;;;4958893;28;20099;-73
2020/12/07 11:53:03;;;;;;;14.07;8.60;;;8.90;78.60;;;;;;4958945;28;20106;-75
2020/12/07 11:55:32;;;;;;;12.73;7.93;;;8.80;78.10;;;;;;4958789;28;20046;-76
2020/12/07 11:57:58;;;;;;;16.77;9.60;;;8.80;77.90;;;;;;4958776;28;20038;-74
2020/12/07 12:00:24;;;;;;;23.30;12.75;;;8.80;77.40;;;;;;4958750;28;20474;-73
2020/12/07 12:02:49;;;;;;;15.30;9.48;;;8.80;77.60;;;;;;4958449;28;20035;-75
2020/12/07 12:05:17;;;;;;;24.50;14.82;;;8.90;77.20;;;;;;4958401;28;20047;-75
2020/12/07 12:07:43;;;;;;;17.80;11.38;;;8.90;77.30;;;;;;4959217;28;20078;-73
2020/12/07 12:10:09;;;;;;;21.55;14.13;;;8.90;76.90;;;;;;4958130;28;20390;-76
2020/12/07 12:12:36;;;;;;;19.98;13.20;;;8.90;78.40;;;;;;4958023;28;20058;-73
2020/12/07 12:15:02;;;;;;;29.33;13.55;;;8.90;78.40;;;;;;4966016;28;20038;-73
2020/12/07 12:17:28;;;;;;;28.92;13.75;;;8.90;78.60;;;;;;4966960;28;20026;-75
2020/12/07 12:19:54;;;;;;;32.60;15.68;;;8.90;78.80;;;;;;4967462;28;20129;-74
2020/12/07 12:22:20;;;;;;;13.75;8.02;;;8.90;79.20;;;;;;4963249;28;20037;-73
2020/12/07 12:24:45;;;;;;;15.48;10.27;;;8.90;79.20;;;;;;4975689;28;20041;-74
2020/12/07 12:27:11;;;;;;;19.50;13.30;;;8.80;80.00;;;;;;4958170;28;20084;-75
2020/12/07 12:29:37;;;;;;;11.77;8.25;;;8.80;80.20;;;;;;4957624;28;20030;-75
2020/12/07 12:32:03;;;;;;;12.82;8.60;;;8.70;80.50;;;;;;4972286;28;20470;-77
2020/12/07 12:34:28;;;;;;;10.23;6.57;;;8.60;81.10;;;;;;4977323;28;20040;-79
2020/12/07 12:36:54;;;;;;;9.60;6.13;;;8.50;82.00;;;;;;4976716;28;20026;-74
2020/12/07 12:39:21;;;;;;;9.48;6.55;;;8.50;82.00;;;;;;4977393;28;20085;-75
2020/12/07 12:41:47;;;;;;;11.27;7.00;;;8.40;82.90;;;;;;4976687;28;20045;-75
2020/12/07 12:44:13;;;;;;;11.65;7.00;;;8.40;83.80;;;;;;4976774;28;20062;-76
2020/12/07 12:46:39;;;;;;;12.05;7.18;;;8.40;83.80;;;;;;4976485;28;20382;-77
2020/12/07 12:49:05;;;;;;;11.00;6.85;;;8.40;83.80;;;;;;4977266;28;20026;-76
2020/12/07 12:51:31;;;;;;;12.27;7.53;;;8.30;84.10;;;;;;4964401;28;20406;-72
2020/12/07 12:53:58;;;;;;;11.50;6.93;;;8.30;84.40;;;;;;4958060;28;20082;-73
2020/12/07 12:56:24;;;;;;;15.77;7.82;;;8.40;84.60;;;;;;4957653;28;20501;-72
2020/12/07 12:58:50;;;;;;;12.85;7.28;;;8.30;84.50;;;;;;4957577;28;20030;-74
2020/12/07 13:01:16;;;;;;;11.77;6.93;;;8.30;84.90;;;;;;4973655;28;20491;-75
2020/12/07 13:03:42;;;;;;;13.35;7.88;;;8.30;85.40;;;;;;4957624;28;20031;-74
2020/12/07 13:06:07;;;;;;;12.75;6.65;;;8.20;85.30;;;;;;4957340;28;20133;-72
2020/12/07 13:08:33;;;;;;;12.68;7.28;;;8.20;85.90;;;;;;4957735;28;20501;-73
2020/12/07 13:11:00;;;;;;;13.07;8.20;;;8.20;85.50;;;;;;4957725;28;20031;-74
2020/12/07 13:13:26;;;;;;;16.60;9.90;;;8.20;86.20;;;;;;4963722;28;20035;-74
2020/12/07 13:16:01;;;;;;;15.07;9.30;;;8.20;86.50;;;;;;4976889;28;20466;-76